createdAt,value
2022-12-23T00:01:28.153Z,22.53
2022-12-23T00:03:59.124Z,21.67
2022-12-23T00:06:26.624Z,23.27
2022-12-23T00:08:53.966Z,24.45
2022-12-23T00:11:21.203Z,22.45
2022-12-23T00:13:48.168Z,24.20
2022-12-23T00:16:15.683Z,22.88
2022-12-23T00:18:43.376Z,23.80
2022-12-23T00:21:16.457Z,23.75
2022-12-23T00:23:46.174Z,25.65
2022-12-23T00:26:15.787Z,24.30
2022-12-23T00:28:43.165Z,25.23
2022-12-23T00:31:10.898Z,25.83
2022-12-23T00:33:40.726Z,25.67
2022-12-23T00:36:16.432Z,26.05
2022-12-23T00:38:43.493Z,27.53
2022-12-23T00:41:16.592Z,24.17
2022-12-23T00:43:43.572Z,24.05
2022-12-23T00:46:10.512Z,23.73
2022-12-23T00:48:37.560Z,25.80
2022-12-23T00:51:04.607Z,26.07
2022-12-23T00:53:31.581Z,26.92
2022-12-23T00:55:58.556Z,26.33
2022-12-23T00:58:25.576Z,24.77
2022-12-23T01:00:53.818Z,25.83
2022-12-23T01:03:20.860Z,26.33
2022-12-23T01:05:47.806Z,26.15
2022-12-23T01:08:14.715Z,27.25
2022-12-23T01:10:41.716Z,25.77
2022-12-23T01:13:08.595Z,25.33
2022-12-23T01:15:35.533Z,26.37
2022-12-23T01:18:02.397Z,25.55
2022-12-23T01:20:29.347Z,26.33
2022-12-23T01:22:56.227Z,24.98
2022-12-23T01:25:23.341Z,27.15
2022-12-23T01:27:50.197Z,23.13
2022-12-23T01:30:17.284Z,18.95
2022-12-23T01:32:44.191Z,17.73
2022-12-23T01:35:11.137Z,17.70
2022-12-23T01:37:37.969Z,19.48
2022-12-23T01:40:08.340Z,19.27
2022-12-23T01:42:35.209Z,19.13
2022-12-23T01:45:12.223Z,21.05
2022-12-23T01:47:44.921Z,19.20
2022-12-23T01:50:40.710Z,19.50
2022-12-23T01:53:25.278Z,18.63
2022-12-23T01:56:02.305Z,18.77
2022-12-23T01:58:42.521Z,17.77
2022-12-23T02:01:10.981Z,15.75
2022-12-23T02:03:38.143Z,18.92
2022-12-23T02:06:05.704Z,19.77
2022-12-23T02:08:32.608Z,20.15
2022-12-23T02:11:35.168Z,20.17
2022-12-23T02:14:02.078Z,21.00
2022-12-23T02:16:34.125Z,19.73
2022-12-23T02:19:18.103Z,19.50
2022-12-23T02:22:08.151Z,19.52
2022-12-23T02:24:49.360Z,20.55
2022-12-23T02:27:23.895Z,21.17
2022-12-23T02:30:14.572Z,20.73
2022-12-23T02:33:15.026Z,21.77
2022-12-23T02:36:06.348Z,21.20
2022-12-23T02:38:47.983Z,21.88
2022-12-23T02:41:28.829Z,22.23
2022-12-23T02:44:08.515Z,20.42
2022-12-23T02:46:49.562Z,22.53
2022-12-23T02:49:20.853Z,21.20
2022-12-23T02:51:53.980Z,22.45
2022-12-23T02:54:29.078Z,20.80
2022-12-23T02:56:58.006Z,21.23
2022-12-23T02:59:29.503Z,21.63
2022-12-23T03:01:57.616Z,20.90
2022-12-23T03:04:24.698Z,22.05
2022-12-23T03:06:56.679Z,22.15
2022-12-23T03:10:02.286Z,21.90
2022-12-23T03:12:47.085Z,19.70
2022-12-23T03:15:37.629Z,19.65
2022-12-23T03:18:27.247Z,18.58
2022-12-23T03:21:03.777Z,15.70
2022-12-23T03:23:35.236Z,20.42
2022-12-23T03:26:22.467Z,19.10
2022-12-23T03:28:58.440Z,19.45
2022-12-23T03:31:30.097Z,18.48
2022-12-23T03:34:02.465Z,17.55
2022-12-23T03:36:34.913Z,18.15
2022-12-23T03:39:05.740Z,18.27
2022-12-23T03:41:39.746Z,18.33
2022-12-23T03:44:16.279Z,14.80
2022-12-23T03:47:15.234Z,17.77
2022-12-23T03:49:53.482Z,17.08
2022-12-23T03:52:31.263Z,16.30
2022-12-23T03:55:05.026Z,15.95
2022-12-23T03:57:58.078Z,16.95
2022-12-23T04:00:28.936Z,16.58
2022-12-23T04:02:55.960Z,18.63
2022-12-23T04:05:30.068Z,17.53
2022-12-23T04:08:13.359Z,16.27
2022-12-23T04:10:40.721Z,18.15
2022-12-23T04:13:08.155Z,16.35
2022-12-23T04:15:41.087Z,15.98
2022-12-23T04:18:09.270Z,16.60
2022-12-23T04:20:36.686Z,17.98
2022-12-23T04:23:03.816Z,18.60
2022-12-23T04:25:30.783Z,17.30
2022-12-23T04:27:57.594Z,17.70
2022-12-23T04:30:29.538Z,18.93
2022-12-23T04:33:00.821Z,17.17
2022-12-23T04:35:27.594Z,19.30
2022-12-23T04:37:54.506Z,18.85
2022-12-23T04:40:21.439Z,19.38
2022-12-23T04:42:48.422Z,17.40
2022-12-23T04:45:15.530Z,17.30
2022-12-23T04:47:42.506Z,17.75
2022-12-23T04:50:14.894Z,17.17
2022-12-23T04:52:42.650Z,17.70
2022-12-23T04:55:10.430Z,18.67
2022-12-23T04:57:37.336Z,16.77
2022-12-23T05:00:05.807Z,17.08
2022-12-23T05:02:32.773Z,18.08
2022-12-23T05:04:59.822Z,14.80
2022-12-23T05:07:26.861Z,15.10
2022-12-23T05:09:53.725Z,15.18
2022-12-23T05:12:20.717Z,18.50
2022-12-23T05:14:47.600Z,17.23
2022-12-23T05:17:14.495Z,19.20
2022-12-23T05:19:41.373Z,18.67
2022-12-23T05:22:08.222Z,17.90
2022-12-23T05:24:35.050Z,17.70
2022-12-23T05:27:01.922Z,17.90
2022-12-23T05:29:28.863Z,17.85
2022-12-23T05:31:55.896Z,18.60
2022-12-23T05:34:22.861Z,16.92
2022-12-23T05:36:49.961Z,17.50
2022-12-23T05:39:16.811Z,18.20
2022-12-23T05:41:43.916Z,17.10
2022-12-23T05:44:10.721Z,17.47
2022-12-23T05:46:37.732Z,17.15
2022-12-23T05:49:04.743Z,19.25
2022-12-23T05:51:31.626Z,18.25
2022-12-23T05:53:58.629Z,15.55
2022-12-23T05:56:25.608Z,16.83
2022-12-23T05:58:52.494Z,16.65
2022-12-23T06:01:19.432Z,17.05
2022-12-23T06:03:46.357Z,16.63
2022-12-23T06:06:13.398Z,14.20
2022-12-23T06:08:40.387Z,17.40
2022-12-23T06:11:07.246Z,15.20
2022-12-23T06:13:34.119Z,19.95
2022-12-23T06:16:01.042Z,20.92
2022-12-23T06:18:27.965Z,19.20
2022-12-23T06:20:54.853Z,20.80
2022-12-23T06:23:21.726Z,18.75
2022-12-23T06:25:48.682Z,16.65
2022-12-23T06:28:15.536Z,19.80
2022-12-23T06:30:42.569Z,21.83
2022-12-23T06:33:09.376Z,18.53
2022-12-23T06:35:36.200Z,20.83
2022-12-23T06:38:05.484Z,23.38
2022-12-23T06:40:35.704Z,21.13
2022-12-23T06:43:02.602Z,21.10
2022-12-23T06:45:29.652Z,20.90
2022-12-23T06:47:56.652Z,22.13
2022-12-23T06:50:23.568Z,22.27
2022-12-23T06:52:50.866Z,20.92
2022-12-23T06:55:17.704Z,21.10
2022-12-23T06:57:45.061Z,20.90
2022-12-23T07:00:12.715Z,19.98
2022-12-23T07:02:39.701Z,20.55
2022-12-23T07:05:06.986Z,18.55
2022-12-23T07:07:34.064Z,20.52
2022-12-23T07:10:01.051Z,20.43
2022-12-23T07:12:28.011Z,21.40
2022-12-23T07:14:55.224Z,19.75
2022-12-23T07:17:22.113Z,19.23
2022-12-23T07:19:49.070Z,18.83
2022-12-23T07:22:15.992Z,21.70
2022-12-23T07:24:43.106Z,22.55
2022-12-23T07:27:10.001Z,25.83
2022-12-23T07:29:36.991Z,22.33
2022-12-23T07:32:04.049Z,35.15
2022-12-23T07:34:31.360Z,26.70
2022-12-23T07:37:01.172Z,31.33
2022-12-23T07:39:28.462Z,45.13
2022-12-23T07:42:16.547Z,30.45
2022-12-23T07:44:42.440Z,37.92
2022-12-23T07:47:09.237Z,23.70
2022-12-23T07:49:36.099Z,22.42
2022-12-23T07:52:03.147Z,22.15
2022-12-23T07:54:30.238Z,21.23
2022-12-23T07:56:57.351Z,30.65
2022-12-23T07:59:26.441Z,20.67
2022-12-23T08:01:53.411Z,24.65
2022-12-23T08:04:20.457Z,23.33
2022-12-23T08:06:47.584Z,22.08
2022-12-23T08:09:14.433Z,24.00
2022-12-23T08:11:41.474Z,22.63
2022-12-23T08:14:08.499Z,19.52
2022-12-23T08:16:41.327Z,21.20
2022-12-23T08:19:10.514Z,21.90
2022-12-23T08:21:37.361Z,21.27
2022-12-23T08:24:04.640Z,22.50
2022-12-23T08:26:32.769Z,21.13
2022-12-23T08:29:00.937Z,22.70
2022-12-23T08:31:31.738Z,21.45
2022-12-23T08:34:00.395Z,23.73
2022-12-23T08:36:38.142Z,23.00
2022-12-23T08:39:08.326Z,23.27
2022-12-23T08:41:42.025Z,24.10
2022-12-23T08:44:22.270Z,23.75
2022-12-23T08:46:49.576Z,31.63
2022-12-23T08:49:18.911Z,24.70
2022-12-23T08:51:45.845Z,24.42
2022-12-23T08:54:12.999Z,37.35
2022-12-23T08:56:41.897Z,33.70
2022-12-23T08:59:18.760Z,27.42
2022-12-23T09:01:47.258Z,29.70
2022-12-23T09:04:14.591Z,31.80
2022-12-23T09:06:42.577Z,33.53
2022-12-23T09:09:12.805Z,26.38
2022-12-23T09:11:39.863Z,30.60
2022-12-23T09:14:07.191Z,25.70
2022-12-23T09:16:34.428Z,24.50
2022-12-23T09:19:01.383Z,25.30
2022-12-23T09:21:28.486Z,25.98
2022-12-23T09:23:55.386Z,25.67
2022-12-23T09:26:25.211Z,25.10
2022-12-23T09:28:52.573Z,29.27
2022-12-23T09:31:20.832Z,28.25
2022-12-23T09:33:49.736Z,27.60
2022-12-23T09:36:17.089Z,28.42
2022-12-23T09:38:44.169Z,27.47
2022-12-23T09:41:55.098Z,29.23
2022-12-23T09:44:37.911Z,29.15
2022-12-23T09:47:17.486Z,27.98
2022-12-23T09:49:54.407Z,29.50
2022-12-23T09:52:31.541Z,30.00
2022-12-23T09:54:58.494Z,28.42
2022-12-23T09:57:39.895Z,29.38
2022-12-23T10:00:18.843Z,30.10
2022-12-23T10:03:00.852Z,30.73
2022-12-23T10:05:27.785Z,31.37
2022-12-23T10:08:18.055Z,29.65
2022-12-23T10:10:54.239Z,29.98
2022-12-23T10:13:32.760Z,30.55
2022-12-23T10:16:04.418Z,28.63
2022-12-23T10:18:45.268Z,28.93
2022-12-23T10:21:42.309Z,29.25
2022-12-23T10:24:23.431Z,30.13
2022-12-23T10:27:16.563Z,31.73
2022-12-23T10:29:43.672Z,30.67
2022-12-23T10:32:33.353Z,31.87
2022-12-23T10:35:31.044Z,29.38
2022-12-23T10:38:21.199Z,26.60
2022-12-23T10:40:48.156Z,30.30
2022-12-23T10:43:27.360Z,30.42
2022-12-23T10:46:08.933Z,29.30
2022-12-23T10:48:51.172Z,26.23
2022-12-23T10:51:36.759Z,28.75
2022-12-23T10:54:15.554Z,26.67
2022-12-23T10:56:43.963Z,27.02
2022-12-23T10:59:15.125Z,25.03
2022-12-23T11:01:49.320Z,26.80
2022-12-23T11:04:26.735Z,27.92
2022-12-23T11:07:18.296Z,25.73
2022-12-23T11:09:54.442Z,24.60
2022-12-23T11:12:40.507Z,21.67
2022-12-23T11:15:28.395Z,21.83
2022-12-23T11:18:19.734Z,24.00
2022-12-23T11:21:03.190Z,22.40
2022-12-23T11:23:35.591Z,18.77
2022-12-23T11:26:11.170Z,23.03
2022-12-23T11:28:48.462Z,24.77
2022-12-23T11:31:15.778Z,21.33
2022-12-23T11:34:01.369Z,22.05
2022-12-23T11:36:30.280Z,21.00
2022-12-23T11:39:15.127Z,17.43
2022-12-23T11:41:48.142Z,19.83
2022-12-23T11:44:50.903Z,22.95
2022-12-23T11:47:23.693Z,21.38
2022-12-23T11:50:02.324Z,21.90
2022-12-23T11:52:31.511Z,22.43
2022-12-23T11:55:01.787Z,21.60
2022-12-23T11:57:46.726Z,23.02
2022-12-23T12:00:26.400Z,20.60
2022-12-23T12:02:56.702Z,16.98
2022-12-23T12:05:51.851Z,16.97
2022-12-23T12:08:24.977Z,16.67
2022-12-23T12:10:53.988Z,17.35
2022-12-23T12:13:36.329Z,19.73
2022-12-23T12:16:12.454Z,17.70
2022-12-23T12:18:42.313Z,20.03
2022-12-23T12:21:17.994Z,18.27
2022-12-23T12:24:14.822Z,19.77
2022-12-23T12:26:42.604Z,19.70
2022-12-23T12:29:36.401Z,19.85
2022-12-23T12:32:04.846Z,18.03
2022-12-23T12:34:50.084Z,16.58
2022-12-23T12:37:46.859Z,19.00
2022-12-23T12:40:35.167Z,19.38
2022-12-23T12:43:26.455Z,18.63
2022-12-23T12:46:14.972Z,16.20
2022-12-23T12:48:56.967Z,18.75
2022-12-23T12:51:43.752Z,19.35
2022-12-23T12:54:22.454Z,18.98
2022-12-23T12:56:52.988Z,16.80
2022-12-23T12:59:38.298Z,18.37
2022-12-23T13:02:27.096Z,18.33
2022-12-23T13:05:12.393Z,18.00
2022-12-23T13:08:10.992Z,18.50
2022-12-23T13:10:53.623Z,18.88
2022-12-23T13:13:32.239Z,18.30
2022-12-23T13:16:11.392Z,18.45
2022-12-23T13:18:53.491Z,18.95
2022-12-23T13:21:31.222Z,20.02
2022-12-23T13:24:12.339Z,14.75
2022-12-23T13:26:45.121Z,18.37
2022-12-23T13:29:54.585Z,18.77
2022-12-23T13:32:37.473Z,18.92
2022-12-23T13:35:32.716Z,17.70
2022-12-23T13:38:02.521Z,18.77
2022-12-23T13:40:38.130Z,16.10
2022-12-23T13:43:26.264Z,16.92
2022-12-23T13:45:55.046Z,15.95
2022-12-23T13:48:36.540Z,16.65
2022-12-23T13:51:25.105Z,14.00
2022-12-23T13:54:04.955Z,18.63
2022-12-23T13:57:26.288Z,14.60
2022-12-23T14:00:16.833Z,17.10
2022-12-23T14:02:52.302Z,15.35
2022-12-23T14:05:41.271Z,15.80
2022-12-23T14:08:28.262Z,13.90
2022-12-23T14:11:11.413Z,14.40
2022-12-23T14:13:51.939Z,12.90
2022-12-23T14:16:27.939Z,17.08
2022-12-23T14:19:22.885Z,15.60
2022-12-23T14:22:18.532Z,17.30
2022-12-23T14:25:36.644Z,17.02
2022-12-23T14:28:22.298Z,18.58
2022-12-23T14:30:49.461Z,17.45
2022-12-23T14:33:31.247Z,19.67
2022-12-23T14:36:15.479Z,20.20
2022-12-23T14:38:42.529Z,19.98
2022-12-23T14:41:20.370Z,21.00
2022-12-23T14:43:47.150Z,19.65
2022-12-23T14:46:42.073Z,19.63
2022-12-23T14:49:38.848Z,20.93
2022-12-23T14:52:44.697Z,20.92
2022-12-23T14:55:32.318Z,20.58
2022-12-23T14:58:13.524Z,19.50
2022-12-23T15:01:09.343Z,18.92
2022-12-23T15:03:43.565Z,18.83
2022-12-23T15:06:16.647Z,18.95
2022-12-23T15:08:46.260Z,19.13
2022-12-23T15:11:22.087Z,18.05
2022-12-23T15:13:51.787Z,17.15
2022-12-23T15:16:19.190Z,17.70
2022-12-23T15:18:56.958Z,17.08
2022-12-23T15:21:34.759Z,16.77
2022-12-23T15:24:03.025Z,17.70
2022-12-23T15:26:32.772Z,18.35
2022-12-23T15:29:00.698Z,16.43
2022-12-23T15:31:29.901Z,14.52
2022-12-23T15:34:03.357Z,17.13
2022-12-23T15:36:33.565Z,15.85
2022-12-23T15:39:01.618Z,17.60
2022-12-23T15:41:29.381Z,16.27
2022-12-23T15:43:57.854Z,17.17
2022-12-23T15:46:30.053Z,18.35
2022-12-23T15:48:57.904Z,17.33
2022-12-23T15:54:38.835Z,15.47
2022-12-23T15:57:06.100Z,16.85
2022-12-23T15:59:38.619Z,15.98
2022-12-23T16:05:31.307Z,16.02
2022-12-23T16:08:16.635Z,16.33
2022-12-23T16:10:57.161Z,16.65
2022-12-23T16:13:24.427Z,17.05
2022-12-23T16:15:51.450Z,15.75
2022-12-23T16:18:24.840Z,15.43
2022-12-23T16:20:58.517Z,15.90
2022-12-23T16:23:30.173Z,15.40
2022-12-23T16:26:02.316Z,16.98
2022-12-23T16:28:44.325Z,18.42
2022-12-23T16:31:15.157Z,20.10
2022-12-23T16:33:44.979Z,18.47
2022-12-23T16:36:36.552Z,21.23
2022-12-23T16:39:07.407Z,22.48
2022-12-23T16:41:34.840Z,22.15
2022-12-23T16:44:02.366Z,21.55
2022-12-23T16:46:33.754Z,17.83
2022-12-23T16:49:04.817Z,17.63
2022-12-23T16:51:32.734Z,17.20
2022-12-23T16:54:01.324Z,20.25
2022-12-23T16:56:34.452Z,22.33
2022-12-23T16:59:01.697Z,20.60
2022-12-23T17:01:31.049Z,20.60
2022-12-23T17:03:58.169Z,20.08
2022-12-23T17:06:25.753Z,20.98
2022-12-23T17:08:53.640Z,21.80
2022-12-23T17:11:37.671Z,19.33
2022-12-23T17:14:11.891Z,20.10
2022-12-23T17:16:42.279Z,18.05
2022-12-23T17:19:09.177Z,18.02
2022-12-23T17:21:36.898Z,17.83
2022-12-23T17:24:12.744Z,17.80
2022-12-23T17:26:39.685Z,15.65
2022-12-23T17:29:07.058Z,13.65
2022-12-23T17:31:35.016Z,13.32
2022-12-23T17:34:02.282Z,12.93
2022-12-23T17:36:29.973Z,13.30
2022-12-23T17:38:57.643Z,15.00
2022-12-23T17:41:29.820Z,12.73
2022-12-23T17:43:57.379Z,15.02
2022-12-23T17:46:25.122Z,15.25
2022-12-23T17:48:52.804Z,14.63
2022-12-23T17:51:22.235Z,13.75
2022-12-23T17:53:56.819Z,13.15
2022-12-23T17:56:25.134Z,13.70
2022-12-23T17:58:52.298Z,13.70
2022-12-23T18:01:31.508Z,15.70
2022-12-23T18:03:59.902Z,16.63
2022-12-23T18:06:28.921Z,21.27
2022-12-23T18:08:56.147Z,20.52
2022-12-23T18:11:25.943Z,21.27
2022-12-23T18:13:54.106Z,20.50
2022-12-23T18:16:21.091Z,20.85
2022-12-23T18:18:48.283Z,21.10
2022-12-23T18:21:22.628Z,19.33
2022-12-23T18:23:50.644Z,20.80
2022-12-23T18:26:17.825Z,20.03
2022-12-23T18:28:45.311Z,23.60
2022-12-23T18:31:24.919Z,21.05
2022-12-23T18:33:52.028Z,21.02
2022-12-23T18:36:24.827Z,19.85
2022-12-23T18:38:52.819Z,20.77
2022-12-23T18:41:21.158Z,21.05
2022-12-23T18:43:48.475Z,56.75
2022-12-23T18:46:15.714Z,53.22
2022-12-23T18:48:43.065Z,41.65
2022-12-23T18:51:15.485Z,24.23
2022-12-23T18:53:42.563Z,21.77
2022-12-23T18:56:16.945Z,26.02
2022-12-23T18:58:43.859Z,22.48
2022-12-23T19:01:15.812Z,43.78
2022-12-23T19:03:43.820Z,26.27
2022-12-23T19:06:13.877Z,22.85
2022-12-23T19:08:42.216Z,27.77
2022-12-23T19:11:17.846Z,24.40
2022-12-23T19:13:45.468Z,20.92
2022-12-23T19:16:17.095Z,21.97
2022-12-23T19:18:44.608Z,21.85
2022-12-23T19:21:11.964Z,20.38
2022-12-23T19:23:43.085Z,19.52
2022-12-23T19:26:11.729Z,22.40
2022-12-23T19:28:39.331Z,22.40
2022-12-23T19:31:11.843Z,20.98
2022-12-23T19:33:40.820Z,20.98
2022-12-23T19:36:22.474Z,21.52
2022-12-23T19:38:49.686Z,21.17
2022-12-23T19:41:17.143Z,21.07
2022-12-23T19:43:46.281Z,20.05
2022-12-23T19:46:14.430Z,21.70
2022-12-23T19:48:41.742Z,19.42
2022-12-23T19:51:11.651Z,21.52
2022-12-23T19:53:41.371Z,21.33
2022-12-23T19:56:13.181Z,21.98
2022-12-23T19:58:42.211Z,23.02
2022-12-23T20:01:11.127Z,18.45
2022-12-23T20:03:39.224Z,14.38
2022-12-23T20:06:08.572Z,12.20
2022-12-23T20:08:35.638Z,11.48
2022-12-23T20:11:07.928Z,12.25
2022-12-23T20:13:35.951Z,13.25
2022-12-23T20:16:03.793Z,12.70
2022-12-23T20:18:30.917Z,11.37
2022-12-23T20:20:57.825Z,12.27
2022-12-23T20:23:25.380Z,12.52
2022-12-23T20:25:52.189Z,12.95
2022-12-23T20:28:19.295Z,11.55
2022-12-23T20:30:47.302Z,11.90
2022-12-23T20:33:15.736Z,10.38
2022-12-23T20:35:42.604Z,11.77
2022-12-23T20:38:09.617Z,11.52
2022-12-23T20:40:36.487Z,12.15
2022-12-23T20:43:03.418Z,11.67
2022-12-23T20:45:30.386Z,12.20
2022-12-23T20:47:57.326Z,14.85
2022-12-23T20:50:24.330Z,14.52
2022-12-23T20:52:51.262Z,21.30
2022-12-23T20:55:18.317Z,22.87
2022-12-23T20:57:45.579Z,21.65
2022-12-23T21:00:13.197Z,21.40
2022-12-23T21:02:40.410Z,21.27
2022-12-23T21:05:07.573Z,20.08
2022-12-23T21:07:34.572Z,20.40
2022-12-23T21:10:01.437Z,20.45
2022-12-23T21:12:28.410Z,19.73
2022-12-23T21:14:55.359Z,19.98
2022-12-23T21:17:22.342Z,19.35
2022-12-23T21:19:49.376Z,17.43
2022-12-23T21:22:16.301Z,19.88
2022-12-23T21:24:43.151Z,20.15
2022-12-23T21:27:09.977Z,18.20
2022-12-23T21:29:36.818Z,18.45
2022-12-23T21:32:03.879Z,19.00
2022-12-23T21:34:30.894Z,16.48
2022-12-23T21:36:57.848Z,17.52
2022-12-23T21:39:24.905Z,13.75
2022-12-23T21:41:51.853Z,18.30
2022-12-23T21:44:18.892Z,18.50
2022-12-23T21:46:45.889Z,18.73
2022-12-23T21:49:12.786Z,18.20
2022-12-23T21:51:41.293Z,17.75
2022-12-23T21:54:11.178Z,18.50
2022-12-23T21:56:39.969Z,18.13
2022-12-23T21:59:10.917Z,17.35
2022-12-23T22:01:38.362Z,17.42
2022-12-23T22:04:05.782Z,16.60
2022-12-23T22:06:36.666Z,17.52
2022-12-23T22:09:07.533Z,15.70
2022-12-23T22:11:36.344Z,16.02
2022-12-23T22:14:05.564Z,18.27
2022-12-23T22:16:34.571Z,17.92
2022-12-23T22:19:02.393Z,18.00
2022-12-23T22:21:31.380Z,15.67
2022-12-23T22:23:58.779Z,17.95
2022-12-23T22:26:31.146Z,18.20
2022-12-23T22:29:00.685Z,17.23
2022-12-23T22:31:42.271Z,18.55
2022-12-23T22:34:21.707Z,19.27
2022-12-23T22:36:49.588Z,17.73
2022-12-23T22:39:20.953Z,18.35
2022-12-23T22:41:50.013Z,17.17
2022-12-23T22:44:16.833Z,17.10
2022-12-23T22:46:44.112Z,17.87
2022-12-23T22:49:13.021Z,17.95
2022-12-23T22:51:41.413Z,17.75
2022-12-23T22:54:09.457Z,17.92
2022-12-23T22:56:36.402Z,17.70
2022-12-23T22:59:03.665Z,17.40
2022-12-23T23:01:35.717Z,18.50
2022-12-23T23:04:04.473Z,18.42
2022-12-23T23:06:34.339Z,17.25
2022-12-23T23:09:01.491Z,17.60
2022-12-23T23:11:36.578Z,17.93
2022-12-23T23:14:03.577Z,16.73
2022-12-23T23:16:30.663Z,16.42
2022-12-23T23:18:58.173Z,15.55
2022-12-23T23:21:25.765Z,16.75
2022-12-23T23:23:52.909Z,16.63
2022-12-23T23:26:20.720Z,15.57
2022-12-23T23:28:48.313Z,17.38
2022-12-23T23:34:02.151Z,16.25
2022-12-23T23:36:29.085Z,16.67
2022-12-23T23:38:56.179Z,16.52
2022-12-23T23:41:24.167Z,15.70
2022-12-23T23:43:51.834Z,16.55
2022-12-23T23:46:18.944Z,16.17
2022-12-23T23:48:46.206Z,16.67
2022-12-23T23:51:13.169Z,15.90
2022-12-23T23:53:40.706Z,15.32
2022-12-23T23:56:08.910Z,15.00
2022-12-23T23:58:36.656Z,14.88
